DOLPHIN UKHP-UKHH
Flight info
| Callsign | DOLPHIN |
|---|---|
| Flight time | 0h 18m |
| Altitude | 3000 |
| Route | DCT |
| Aircraft | L29/L-SDFGRWY/S |
Departure
| Time | 2026-04-13 21:17 |
|---|---|
| Airport | Suprunovka Airport (UKHP) |
Arrival
| Time | 2026-04-13 21:35 |
|---|---|
| Airport | Kharkiv International Airport (UKHH) |
| Time | Latitude | Longitude | Altitude | Speed | Heading |
|---|---|---|---|---|---|
| 2026-04-13 21:10 | 49.57312 | 34.39874 | 496 ft | 0 kts | 277° |
| 2026-04-13 21:14 | 49.57313 | 34.39865 | 496 ft | 4 kts | 272° |
| 2026-04-13 21:14 | 49.57194 | 34.39777 | 496 ft | 27 kts | 188° |
| 2026-04-13 21:14 | 49.57027 | 34.39747 | 493 ft | 22 kts | 185° |
| 2026-04-13 21:15 | 49.56934 | 34.39730 | 493 ft | 9 kts | 212° |
| 2026-04-13 21:15 | 49.56921 | 34.39655 | 492 ft | 6 kts | 276° |
| 2026-04-13 21:15 | 49.56921 | 34.39645 | 492 ft | 0 kts | 269° |
| 2026-04-13 21:16 | 49.56922 | 34.39640 | 492 ft | 4 kts | 277° |
| 2026-04-13 21:16 | 49.56943 | 34.39272 | 490 ft | 74 kts | 276° |
| 2026-04-13 21:16 | 49.57023 | 34.38155 | 578 ft | 126 kts | 274° |
| 2026-04-13 21:16 | 49.57082 | 34.36677 | 1004 ft | 160 kts | 276° |
| 2026-04-13 21:17 | 49.57844 | 34.35300 | 1420 ft | 198 kts | 342° |
| 2026-04-13 21:17 | 49.59311 | 34.35186 | 1891 ft | 230 kts | 1° |
| 2026-04-13 21:17 | 49.60977 | 34.35300 | 2445 ft | 252 kts | 2° |
| 2026-04-13 21:17 | 49.62720 | 34.36077 | 2872 ft | 273 kts | 35° |
| 2026-04-13 21:18 | 49.63730 | 34.38555 | 3426 ft | 283 kts | 62° |
| 2026-04-13 21:18 | 49.64487 | 34.41409 | 3954 ft | 293 kts | 73° |
| 2026-04-13 21:18 | 49.64565 | 34.44452 | 4864 ft | 284 kts | 97° |
| 2026-04-13 21:18 | 49.64677 | 34.47403 | 5552 ft | 288 kts | 68° |
| 2026-04-13 21:19 | 49.66010 | 34.49769 | 5687 ft | 309 kts | 44° |
| 2026-04-13 21:19 | 49.67670 | 34.52196 | 4715 ft | 353 kts | 41° |
| 2026-04-13 21:19 | 49.69618 | 34.54585 | 4847 ft | 350 kts | 35° |
| 2026-04-13 21:19 | 49.71207 | 34.57409 | 4341 ft | 366 kts | 64° |
| 2026-04-13 21:20 | 49.71984 | 34.61175 | 4175 ft | 363 kts | 71° |
| 2026-04-13 21:20 | 49.72821 | 34.64821 | 4376 ft | 356 kts | 67° |
| 2026-04-13 21:20 | 49.73901 | 34.68302 | 3589 ft | 380 kts | 66° |
| 2026-04-13 21:20 | 49.74965 | 34.72177 | 2300 ft | 391 kts | 67° |
| 2026-04-13 21:21 | 49.75948 | 34.75762 | 2939 ft | 366 kts | 67° |
| 2026-04-13 21:21 | 49.77115 | 34.79234 | 2880 ft | 364 kts | 60° |
| 2026-04-13 21:21 | 49.78470 | 34.82550 | 2712 ft | 365 kts | 57° |
| 2026-04-13 21:21 | 49.79645 | 34.85263 | 3023 ft | 355 kts | 56° |
| 2026-04-13 21:22 | 49.80957 | 34.88242 | 2914 ft | 360 kts | 56° |
| 2026-04-13 21:22 | 49.82173 | 34.91019 | 2925 ft | 358 kts | 56° |
| 2026-04-13 21:23 | 49.82309 | 34.91330 | 2979 ft | 356 kts | 56° |
| 2026-04-13 21:24 | 49.83204 | 34.93397 | 3469 ft | 343 kts | 57° |
| 2026-04-13 21:24 | 49.84510 | 34.96554 | 3289 ft | 354 kts | 61° |
| 2026-04-13 21:24 | 49.85204 | 34.99338 | 3402 ft | 351 kts | 76° |
| 2026-04-13 21:24 | 49.85628 | 35.03054 | 3421 ft | 354 kts | 81° |
| 2026-04-13 21:25 | 49.86006 | 35.06851 | 3378 ft | 355 kts | 81° |
| 2026-04-13 21:25 | 49.86420 | 35.10653 | 3307 ft | 359 kts | 80° |
| 2026-04-13 21:25 | 49.86762 | 35.14085 | 3522 ft | 351 kts | 82° |
| 2026-04-13 21:25 | 49.87108 | 35.17569 | 3562 ft | 352 kts | 83° |
| 2026-04-13 21:26 | 49.87173 | 35.18568 | 3681 ft | 349 kts | 85° |
| 2026-04-13 21:26 | 49.87511 | 35.22264 | 3599 ft | 353 kts | 77° |
| 2026-04-13 21:26 | 49.88184 | 35.25959 | 3044 ft | 351 kts | 53° |
| 2026-04-13 21:26 | 49.89318 | 35.28788 | 1177 ft | 347 kts | 39° |
| 2026-04-13 21:27 | 49.91060 | 35.31176 | 2090 ft | 326 kts | 38° |
| 2026-04-13 21:27 | 49.92753 | 35.33226 | 3120 ft | 312 kts | 41° |
| 2026-04-13 21:27 | 49.94473 | 35.35475 | 3139 ft | 329 kts | 41° |
| 2026-04-13 21:27 | 49.95877 | 35.38311 | 3044 ft | 342 kts | 62° |
| 2026-04-13 21:28 | 49.96637 | 35.41882 | 2599 ft | 359 kts | 81° |
| 2026-04-13 21:28 | 49.96419 | 35.45809 | 1892 ft | 374 kts | 107° |
| 2026-04-13 21:28 | 49.95190 | 35.49376 | 1274 ft | 379 kts | 128° |
| 2026-04-13 21:28 | 49.93440 | 35.52347 | 1385 ft | 365 kts | 133° |
| 2026-04-13 21:29 | 49.91880 | 35.55249 | 2046 ft | 346 kts | 121° |
| 2026-04-13 21:29 | 49.91005 | 35.58681 | 2368 ft | 343 kts | 101° |
| 2026-04-13 21:29 | 49.90841 | 35.62405 | 2188 ft | 354 kts | 89° |
| 2026-04-13 21:29 | 49.90750 | 35.66345 | 1599 ft | 369 kts | 99° |
| 2026-04-13 21:30 | 49.90017 | 35.70105 | 1475 ft | 363 kts | 120° |
| 2026-04-13 21:30 | 49.88691 | 35.73346 | 1895 ft | 346 kts | 118° |
| 2026-04-13 21:30 | 49.88245 | 35.76915 | 2117 ft | 347 kts | 90° |
| 2026-04-13 21:30 | 49.88306 | 35.80674 | 2018 ft | 354 kts | 90° |
| 2026-04-13 21:31 | 49.88441 | 35.84530 | 2100 ft | 353 kts | 86° |
| 2026-04-13 21:31 | 49.88687 | 35.88285 | 2291 ft | 351 kts | 83° |
| 2026-04-13 21:31 | 49.89042 | 35.91995 | 2489 ft | 349 kts | 82° |
| 2026-04-13 21:31 | 49.89352 | 35.95724 | 2674 ft | 348 kts | 84° |
| 2026-04-13 21:32 | 49.89551 | 35.99489 | 2708 ft | 351 kts | 87° |
| 2026-04-13 21:32 | 49.89703 | 36.03343 | 2428 ft | 361 kts | 90° |
| 2026-04-13 21:32 | 49.89845 | 36.07225 | 2213 ft | 349 kts | 89° |
| 2026-04-13 21:32 | 49.90093 | 36.10443 | 1915 ft | 271 kts | 76° |
| 2026-04-13 21:33 | 49.90736 | 36.12901 | 1727 ft | 218 kts | 64° |
| 2026-04-13 21:33 | 49.91324 | 36.14842 | 1622 ft | 182 kts | 67° |
| 2026-04-13 21:33 | 49.91670 | 36.16559 | 1520 ft | 155 kts | 73° |
| 2026-04-13 21:34 | 49.92807 | 36.16890 | 1327 ft | 113 kts | 278° |
| 2026-04-13 21:34 | 49.92699 | 36.15764 | 1131 ft | 105 kts | 239° |
| 2026-04-13 21:34 | 49.92146 | 36.15173 | 925 ft | 94 kts | 163° |
| 2026-04-13 21:34 | 49.91867 | 36.15996 | 679 ft | 88 kts | 92° |
| 2026-04-13 21:35 | 49.91852 | 36.16868 | 516 ft | 68 kts | 93° |
| 2026-04-13 21:35 | 49.91835 | 36.17276 | 478 ft | 10 kts | 101° |
| 2026-04-13 21:35 | 49.91831 | 36.17305 | 860 ft | 76 kts | 102° |
| 2026-04-13 21:36 | 49.91800 | 36.17368 | 468 ft | 0 kts | 209° |
| 2026-04-13 21:36 | 49.91799 | 36.17368 | 471 ft | 0 kts | 209° |
| 2026-04-13 21:36 | 50.03213 | 36.27118 | 588 ft | 0 kts | 303° |
| 2026-04-13 21:37 | 50.03215 | 36.27114 | 588 ft | 1 kts | 313° |
| 2026-04-13 21:38 | 50.03278 | 36.27152 | 590 ft | 13 kts | 71° |
| 2026-04-13 21:38 | 50.03215 | 36.27203 | 589 ft | 14 kts | 215° |
| 2026-04-13 21:38 | 50.03227 | 36.27100 | 588 ft | 15 kts | 30° |
| 2026-04-13 21:38 | 50.03265 | 36.27247 | 590 ft | 6 kts | 150° |
| 2026-04-13 21:39 | 50.03210 | 36.27314 | 589 ft | 24 kts | 161° |
| 2026-04-13 21:39 | 50.02919 | 36.27104 | 583 ft | 78 kts | 212° |
| 2026-04-13 21:39 | 50.02278 | 36.26501 | 575 ft | 134 kts | 212° |
| 2026-04-13 21:39 | 50.01453 | 36.25680 | 843 ft | 143 kts | 212° |
| 2026-04-13 21:40 | 50.00848 | 36.24497 | 957 ft | 157 kts | 285° |
| 2026-04-13 21:40 | 50.01845 | 36.23907 | 1026 ft | 176 kts | 345° |
| 2026-04-13 21:40 | 50.02993 | 36.22963 | 1181 ft | 199 kts | 322° |
| 2026-04-13 21:40 | 50.03453 | 36.22328 | 1099 ft | 214 kts | 314° |
| 2026-04-13 21:41 | 50.04181 | 36.20260 | 1193 ft | 226 kts | 284° |
| 2026-04-13 21:41 | 50.04220 | 36.17772 | 1277 ft | 233 kts | 261° |
| 2026-04-13 21:41 | 50.03895 | 36.15519 | 1396 ft | 243 kts | 256° |
| 2026-04-13 21:42 | 50.03307 | 36.13464 | 1078 ft | 257 kts | 232° |
| 2026-04-13 21:42 | 50.01833 | 36.11906 | 1033 ft | 262 kts | 198° |
| 2026-04-13 21:43 | 50.00093 | 36.12128 | 1152 ft | 257 kts | 154° |
| 2026-04-13 21:43 | 49.98971 | 36.13077 | 1314 ft | 226 kts | 149° |
| 2026-04-13 21:43 | 49.97861 | 36.14002 | 1087 ft | 218 kts | 146° |
| 2026-04-13 21:43 | 49.96684 | 36.15573 | 1069 ft | 229 kts | 136° |
| 2026-04-13 21:44 | 49.95355 | 36.17079 | 1122 ft | 240 kts | 143° |
| 2026-04-13 21:44 | 49.93969 | 36.18472 | 1355 ft | 242 kts | 149° |
| 2026-04-13 21:44 | 49.92423 | 36.18536 | 1629 ft | 231 kts | 225° |
| 2026-04-13 21:44 | 49.92447 | 36.16418 | 1422 ft | 232 kts | 343° |
| 2026-04-13 21:45 | 49.93953 | 36.16967 | 1337 ft | 242 kts | 57° |
| 2026-04-13 21:45 | 49.93396 | 36.18898 | 1304 ft | 244 kts | 191° |
| 2026-04-13 21:45 | 49.92355 | 36.17166 | 1539 ft | 234 kts | 262° |
| 2026-04-13 21:45 | 49.93068 | 36.15108 | 1658 ft | 229 kts | 332° |
| 2026-04-13 21:46 | 49.94516 | 36.15687 | 1415 ft | 247 kts | 62° |
| 2026-04-13 21:46 | 49.93676 | 36.17485 | 1433 ft | 243 kts | 175° |
| 2026-04-13 21:46 | 49.92242 | 36.16488 | 1731 ft | 237 kts | 233° |
| 2026-04-13 21:46 | 49.92250 | 36.14159 | 1638 ft | 237 kts | 322° |
| 2026-04-13 21:47 | 49.93807 | 36.13878 | 1941 ft | 228 kts | 13° |
| 2026-04-13 21:47 | 49.95010 | 36.15306 | 2112 ft | 235 kts | 78° |
| 2026-04-13 21:47 | 49.93962 | 36.15628 | 1885 ft | 224 kts | 239° |
| 2026-04-13 21:47 | 49.94114 | 36.13516 | 1812 ft | 235 kts | 322° |
| 2026-04-13 21:48 | 49.94642 | 36.14778 | 1836 ft | 217 kts | 135° |
| 2026-04-13 21:48 | 49.93419 | 36.14929 | 2583 ft | 192 kts | 245° |
| 2026-04-13 21:48 | 49.93961 | 36.14801 | 1837 ft | 213 kts | 104° |
| 2026-04-13 21:48 | 49.93453 | 36.14143 | 1256 ft | 191 kts | 284° |
| 2026-04-13 21:49 | 49.93256 | 36.12286 | 1693 ft | 178 kts | 233° |
| 2026-04-13 21:49 | 49.92224 | 36.11451 | 1906 ft | 172 kts | 176° |
| 2026-04-13 21:49 | 49.91497 | 36.12650 | 1710 ft | 173 kts | 94° |
| 2026-04-13 21:49 | 49.91516 | 36.14760 | 1450 ft | 215 kts | 79° |
| 2026-04-13 21:50 | 49.91715 | 36.17189 | 1249 ft | 241 kts | 79° |
| 2026-04-13 21:50 | 49.91950 | 36.19848 | 1072 ft | 254 kts | 80° |
| 2026-04-13 21:50 | 49.92157 | 36.22569 | 779 ft | 256 kts | 79° |
| 2026-04-13 21:50 | 49.92387 | 36.25300 | 703 ft | 260 kts | 80° |
| 2026-04-13 21:51 | 49.92616 | 36.28105 | 580 ft | 263 kts | 79° |
| 2026-04-13 21:51 | 49.92863 | 36.30885 | 707 ft | 256 kts | 76° |
| 2026-04-13 21:51 | 49.93254 | 36.33534 | 1115 ft | 241 kts | 69° |
| 2026-04-13 21:51 | 49.94234 | 36.35273 | 1596 ft | 224 kts | 5° |
| 2026-04-13 21:52 | 49.94861 | 36.33499 | 1380 ft | 235 kts | 252° |
| 2026-04-13 21:52 | 49.94264 | 36.31175 | 1581 ft | 240 kts | 249° |
| 2026-04-13 21:52 | 49.93609 | 36.28711 | 1420 ft | 254 kts | 244° |
| 2026-04-13 21:52 | 49.92777 | 36.26217 | 1285 ft | 261 kts | 241° |
| 2026-04-13 21:53 | 49.91906 | 36.23765 | 1439 ft | 254 kts | 239° |
| 2026-04-13 21:53 | 49.91198 | 36.21934 | 1853 ft | 241 kts | 239° |
| 2026-04-13 21:53 | 49.90778 | 36.20454 | 1730 ft | 250 kts | 256° |
| 2026-04-13 21:53 | 49.91179 | 36.17887 | 1339 ft | 256 kts | 313° |
| 2026-04-13 21:54 | 49.92640 | 36.17818 | 1691 ft | 236 kts | 58° |
| 2026-04-13 21:54 | 49.92254 | 36.20243 | 1295 ft | 228 kts | 108° |
| 2026-04-13 21:54 | 49.92052 | 36.22417 | 1048 ft | 189 kts | 77° |
| 2026-04-13 21:54 | 49.92304 | 36.24291 | 781 ft | 165 kts | 77° |
| 2026-04-13 21:55 | 49.92428 | 36.25927 | 669 ft | 141 kts | 79° |
| 2026-04-13 21:55 | 49.92545 | 36.27331 | 610 ft | 118 kts | 79° |
| 2026-04-13 21:55 | 49.92644 | 36.28576 | 599 ft | 126 kts | 79° |
| 2026-04-13 21:55 | 49.92759 | 36.30109 | 709 ft | 163 kts | 73° |
| 2026-04-13 21:56 | 49.92950 | 36.32132 | 803 ft | 208 kts | 80° |
| 2026-04-13 21:56 | 49.93225 | 36.34473 | 1078 ft | 238 kts | 68° |
| 2026-04-13 21:56 | 49.93768 | 36.37028 | 1413 ft | 259 kts | 63° |
| 2026-04-13 21:56 | 49.95081 | 36.38516 | 2280 ft | 245 kts | 359° |
| 2026-04-13 21:57 | 49.95995 | 36.36982 | 1884 ft | 228 kts | 255° |
| 2026-04-13 21:57 | 49.95491 | 36.34756 | 1776 ft | 201 kts | 254° |
| 2026-04-13 21:57 | 49.95082 | 36.32757 | 1641 ft | 184 kts | 253° |
| 2026-04-13 21:57 | 49.94741 | 36.30812 | 1536 ft | 190 kts | 257° |
| 2026-04-13 21:58 | 49.94472 | 36.29028 | 1591 ft | 166 kts | 261° |
| 2026-04-13 21:58 | 49.94344 | 36.27349 | 1569 ft | 147 kts | 264° |
| 2026-04-13 21:58 | 49.94197 | 36.26031 | 1700 ft | 100 kts | 259° |
| 2026-04-13 21:58 | 49.94058 | 36.25062 | 1490 ft | 90 kts | 256° |
| 2026-04-13 21:59 | 49.93850 | 36.24131 | 1421 ft | 91 kts | 249° |
| 2026-04-13 21:59 | 49.93663 | 36.23103 | 1462 ft | 108 kts | 255° |
| 2026-04-13 21:59 | 49.93468 | 36.21930 | 1703 ft | 116 kts | 256° |
| 2026-04-13 21:59 | 49.93276 | 36.20681 | 1959 ft | 122 kts | 254° |
| 2026-04-13 22:00 | 49.92876 | 36.19531 | 2275 ft | 125 kts | 231° |
| 2026-04-13 22:00 | 49.92034 | 36.19165 | 2258 ft | 143 kts | 151° |
| 2026-04-13 22:00 | 49.91797 | 36.20478 | 1731 ft | 143 kts | 75° |
| 2026-04-13 22:00 | 49.92094 | 36.22422 | 1279 ft | 221 kts | 75° |
| 2026-04-13 22:01 | 49.92371 | 36.25044 | 948 ft | 275 kts | 80° |
| 2026-04-13 22:01 | 49.92620 | 36.28211 | 738 ft | 306 kts | 86° |
| 2026-04-13 22:01 | 49.92720 | 36.31408 | 1191 ft | 287 kts | 81° |
| 2026-04-13 22:01 | 49.93740 | 36.33362 | 1296 ft | 257 kts | 359° |
| 2026-04-13 22:02 | 49.95348 | 36.32335 | 1057 ft | 253 kts | 324° |
| 2026-04-13 22:02 | 49.96726 | 36.32702 | 2020 ft | 195 kts | 20° |
| 2026-04-13 22:02 | 49.98041 | 36.33349 | 1981 ft | 204 kts | 9° |
| 2026-04-13 22:02 | 49.99511 | 36.33569 | 1746 ft | 220 kts | 357° |
| 2026-04-13 22:03 | 50.01080 | 36.33326 | 1604 ft | 225 kts | 345° |
| 2026-04-13 22:03 | 50.02563 | 36.32662 | 1903 ft | 224 kts | 343° |
| 2026-04-13 22:03 | 50.04081 | 36.31686 | 2060 ft | 247 kts | 326° |
| 2026-04-13 22:03 | 50.04792 | 36.29554 | 1637 ft | 231 kts | 259° |
| 2026-04-13 22:04 | 50.03742 | 36.27934 | 913 ft | 218 kts | 207° |
| 2026-04-13 22:04 | 50.02538 | 36.26775 | 588 ft | 185 kts | 211° |
| 2026-04-13 22:04 | 50.01586 | 36.25911 | 894 ft | 128 kts | 184° |
| 2026-04-13 22:04 | 50.01337 | 36.26876 | 804 ft | 127 kts | 50° |
| 2026-04-13 22:05 | 50.02120 | 36.27528 | 870 ft | 134 kts | 22° |
| 2026-04-13 22:05 | 50.02947 | 36.28257 | 968 ft | 141 kts | 25° |
| 2026-04-13 22:05 | 50.03946 | 36.28965 | 812 ft | 180 kts | 16° |
| 2026-04-13 22:05 | 50.04745 | 36.28586 | 1039 ft | 129 kts | 259° |
| 2026-04-13 22:06 | 50.04066 | 36.28080 | 805 ft | 105 kts | 191° |
| 2026-04-13 22:06 | 50.03459 | 36.27676 | 648 ft | 89 kts | 212° |
| 2026-04-13 22:06 | 50.02918 | 36.27135 | 596 ft | 94 kts | 214° |
| 2026-04-13 22:06 | 50.02398 | 36.26625 | 576 ft | 77 kts | 214° |
| 2026-04-13 22:07 | 50.02228 | 36.26448 | 574 ft | 0 kts | 211° |
| 2026-04-13 22:07 | 50.02203 | 36.26418 | 573 ft | 10 kts | 216° |
| 2026-04-13 22:07 | 50.02108 | 36.26320 | 569 ft | 22 kts | 213° |
| 2026-04-13 22:07 | 50.01941 | 36.26179 | 566 ft | 31 kts | 205° |
| 2026-04-13 22:08 | 50.01892 | 36.26043 | 564 ft | 7 kts | 51° |
| 2026-04-13 22:08 | 50.01983 | 36.26165 | 568 ft | 43 kts | 37° |
| 2026-04-13 22:08 | 50.02330 | 36.26531 | 575 ft | 60 kts | 33° |
| 2026-04-13 22:08 | 50.02521 | 36.26722 | 579 ft | 26 kts | 25° |
| 2026-04-13 22:09 | 50.02620 | 36.26722 | 580 ft | 10 kts | 316° |
| 2026-04-13 22:09 | 50.02661 | 36.26638 | 581 ft | 9 kts | 308° |
| 2026-04-13 22:09 | 50.02675 | 36.26573 | 581 ft | 3 kts | 200° |
| 2026-04-13 22:09 | 50.02672 | 36.26566 | 581 ft | 0 kts | 239° |
| 2026-04-13 22:10 | 50.02668 | 36.26559 | 581 ft | 1 kts | 206° |
| 2026-04-13 22:10 | 50.02651 | 36.26551 | 581 ft | 3 kts | 194° |
| 2026-04-13 22:10 | 50.02650 | 36.26550 | 581 ft | 0 kts | 194° |